Time;durP1;ratioP1;P1;durP2;ratioP2;P2;SDS_P1;SDS_P2;PMS_P1;PMS_P2;Temp;Humidity;BMP_temperature;BMP_pressure;BME280_temperature;BME280_humidity;BME280_pressure;Samples;Min_cycle;Max_cycle;Signal;HPM_P1;HPM_P2
2021/12/04 00:00:21;;;;;;;5.18;3.83;;;;;;;0.80;73.25;98011.84;4962724;29;20027;-57
2021/12/04 00:03:08;;;;;;;4.43;3.25;;;;;;;0.43;72.67;97979.91;4960774;29;20039;-57
2021/12/04 00:05:57;;;;;;;5.07;3.15;;;;;;;0.61;74.17;98000.97;4959824;29;20025;-57
2021/12/04 00:08:45;;;;;;;7.68;3.63;;;;;;;0.65;74.17;98006.00;4956862;29;20047;-57
2021/12/04 00:11:34;;;;;;;3.70;2.90;;;;;;;0.66;73.78;98017.06;4950933;29;20012;-57
2021/12/04 00:14:20;;;;;;;6.75;3.78;;;;;;;0.58;74.04;98021.38;4960825;29;20074;-57
2021/12/04 00:17:06;;;;;;;4.40;2.90;;;;;;;0.51;72.32;98011.25;4957505;29;20038;-57
2021/12/04 00:19:52;;;;;;;4.72;3.10;;;;;;;0.44;73.52;98001.09;4961166;29;20030;-57
2021/12/04 00:22:38;;;;;;;5.05;3.20;;;;;;;0.60;74.39;98010.31;4960888;29;20031;-57
2021/12/04 00:25:26;;;;;;;5.70;3.47;;;;;;;0.51;72.75;98007.84;4959308;29;20105;-56
2021/12/04 00:28:12;;;;;;;5.70;3.08;;;;;;;0.48;73.62;98016.34;4959084;29;20043;-57
2021/12/04 00:30:59;;;;;;;3.65;2.92;;;;;;;0.48;73.99;98015.50;4949986;29;20024;-57
2021/12/04 00:33:46;;;;;;;5.03;3.00;;;;;;;0.49;74.33;98012.09;4948891;29;20168;-56
2021/12/04 00:51:54;;;;;;;3.47;2.80;;;;;;;0.14;74.41;98008.97;4948790;29;20031;-57
2021/12/04 00:54:40;;;;;;;4.07;3.03;;;;;;;0.30;74.41;98029.22;4956594;29;20099;-57
2021/12/04 00:57:26;;;;;;;4.18;2.70;;;;;;;0.29;74.73;98018.19;4961936;29;20054;-57
2021/12/04 01:00:12;;;;;;;4.07;2.83;;;;;;;0.31;74.64;98023.28;4961679;29;20276;-57
2021/12/04 01:02:58;;;;;;;3.60;2.72;;;;;;;0.35;74.38;98019.84;4962239;29;20031;-57
2021/12/04 01:05:44;;;;;;;4.50;2.72;;;;;;;0.32;73.73;98014.78;4958371;28;20094;-56
2021/12/04 01:08:30;;;;;;;3.10;2.80;;;;;;;0.18;74.50;98012.34;4956511;29;20023;-57
2021/12/04 01:11:16;;;;;;;3.75;2.60;;;;;;;0.21;74.10;98017.41;4956499;29;20023;-57
2021/12/04 01:14:04;;;;;;;2.78;2.33;;;;;;;0.39;73.89;98044.44;4960968;28;20039;-57
2021/12/04 01:16:50;;;;;;;4.25;3.10;;;;;;;0.38;75.45;98013.91;4959462;29;20023;-57
2021/12/04 01:19:39;;;;;;;4.38;3.10;;;;;;;0.31;75.32;98028.38;4960065;29;20027;-56
2021/12/04 01:22:26;;;;;;;4.20;3.20;;;;;;;0.29;74.76;98030.09;4961208;29;20038;-56
2021/12/04 01:25:12;;;;;;;5.95;2.53;;;;;;;0.05;74.21;98023.47;4959693;29;20043;-57
2021/12/04 01:27:58;;;;;;;3.50;2.85;;;;;;;0.11;74.06;98021.69;4948928;29;20594;-56
2021/12/04 01:30:44;;;;;;;3.72;2.65;;;;;;;0.06;75.24;98023.44;4957868;29;20043;-56
2021/12/04 01:33:30;;;;;;;4.32;3.10;;;;;;;0.00;75.56;98023.50;4960604;29;20114;-56
2021/12/04 01:36:16;;;;;;;4.45;2.92;;;;;;;0.02;75.23;98026.88;4958664;29;20089;-55
2021/12/04 01:39:04;;;;;;;3.05;2.55;;;;;;;-0.48;75.34;97961.88;4959215;29;20031;-55
2021/12/04 01:41:50;;;;;;;3.40;2.60;;;;;;;-0.19;76.51;98021.03;4958883;29;20229;-57
2021/12/04 01:44:36;;;;;;;3.90;2.67;;;;;;;-0.13;76.17;98025.25;4955748;29;20024;-57
2021/12/04 01:47:22;;;;;;;3.83;2.88;;;;;;;-0.02;76.08;98023.47;4960446;29;20028;-56
2021/12/04 01:50:09;;;;;;;3.10;2.80;;;;;;;0.02;76.55;98031.94;4955941;29;20039;-56
2021/12/04 01:52:57;;;;;;;3.83;3.13;;;;;;;-0.14;75.94;98015.06;4960680;29;20335;-56
2021/12/04 01:55:43;;;;;;;4.28;2.70;;;;;;;-0.27;76.11;98027.88;4958803;29;20031;-56
2021/12/04 01:58:30;;;;;;;2.60;2.40;;;;;;;-0.28;74.93;98036.34;4960061;29;20035;-58
2021/12/04 02:01:16;;;;;;;3.53;2.45;;;;;;;-0.07;75.02;98043.03;4961654;28;20098;-57
2021/12/04 02:04:02;;;;;;;3.60;2.70;;;;;;;-0.18;75.35;98038.00;4961199;29;20035;-57
2021/12/04 02:06:48;;;;;;;3.63;2.85;;;;;;;-0.20;75.60;98034.63;4958248;29;20300;-57
2021/12/04 02:09:36;;;;;;;3.00;2.42;;;;;;;-0.22;75.23;98036.31;4945574;29;20059;-57
2021/12/04 02:12:21;;;;;;;3.05;2.75;;;;;;;-0.41;74.79;98015.22;4942690;29;20031;-57
2021/12/04 02:15:11;;;;;;;3.90;3.00;;;;;;;-0.33;76.46;98057.56;4954896;28;20066;-57
2021/12/04 02:17:58;;;;;;;4.30;3.00;;;;;;;-0.46;75.06;98032.19;4946778;28;20031;-58
2021/12/04 02:20:44;;;;;;;4.38;3.08;;;;;;;-0.32;76.18;98039.75;4964051;29;20027;-57
2021/12/04 02:23:30;;;;;;;4.13;3.17;;;;;;;-0.31;75.67;98041.47;4946754;29;20030;-57
2021/12/04 02:26:16;;;;;;;5.55;3.20;;;;;;;-0.27;74.92;98038.06;4957632;29;20112;-57
2021/12/04 02:29:02;;;;;;;3.88;2.88;;;;;;;-0.24;76.98;98053.28;4962725;29;20023;-57
2021/12/04 02:31:51;;;;;;;4.22;2.75;;;;;;;-0.59;76.08;97993.25;4963485;29;20019;-56
2021/12/04 02:34:38;;;;;;;4.68;3.03;;;;;;;-0.62;75.11;97995.81;4965303;28;20067;-56
2021/12/04 02:37:24;;;;;;;5.07;3.33;;;;;;;-0.32;75.77;98060.09;4964153;28;20093;-57
2021/12/04 02:40:12;;;;;;;5.53;3.10;;;;;;;-0.45;76.72;98031.34;4964383;28;20047;-57
2021/12/04 02:42:58;;;;;;;3.70;2.70;;;;;;;-0.49;74.97;98049.16;4963995;29;20033;-57
2021/12/04 02:45:44;;;;;;;3.45;2.50;;;;;;;-0.33;75.01;98055.88;4953776;29;20267;-57
2021/12/04 02:48:31;;;;;;;5.97;3.00;;;;;;;-0.49;75.35;98052.53;4955580;29;20043;-56
2021/12/04 02:51:19;;;;;;;4.13;2.97;;;;;;;-0.53;75.80;98054.25;4948885;28;20031;-56
2021/12/04 02:54:05;;;;;;;5.32;3.28;;;;;;;-0.66;76.67;98060.22;4959824;29;20121;-57
2021/12/04 02:56:52;;;;;;;3.85;3.45;;;;;;;-0.49;76.59;98064.41;4963337;29;20248;-57
2021/12/04 02:59:39;;;;;;;6.05;3.70;;;;;;;-0.50;78.03;98060.19;4963439;29;20050;-56
2021/12/04 03:02:25;;;;;;;3.63;3.05;;;;;;;-0.49;75.85;98061.88;4953956;29;20042;-59
2021/12/04 03:05:12;;;;;;;5.05;3.47;;;;;;;-0.51;76.58;98061.88;4960376;29;20023;-57
2021/12/04 03:08:00;;;;;;;4.85;3.30;;;;;;;-0.44;76.58;98049.97;4961613;29;20324;-58
2021/12/04 03:10:50;;;;;;;5.53;3.65;;;;;;;-0.68;76.12;98050.91;4962312;29;20030;-59
2021/12/04 03:13:36;;;;;;;4.70;3.33;;;;;;;-0.66;76.61;98060.22;4949277;28;20036;-57
2021/12/04 03:16:22;;;;;;;4.60;3.20;;;;;;;-0.66;77.15;98067.84;4961513;29;20252;-57
2021/12/04 03:19:08;;;;;;;3.53;3.17;;;;;;;-0.61;75.86;98080.56;4959502;29;20105;-56
2021/12/04 03:21:55;;;;;;;3.92;3.13;;;;;;;-0.70;76.70;98068.69;4961995;29;20042;-56
2021/12/04 03:24:42;;;;;;;5.13;3.17;;;;;;;-0.58;76.38;98067.84;4962853;29;20138;-56
2021/12/04 03:27:31;;;;;;;6.05;3.17;;;;;;;-0.57;75.79;98069.50;4963531;29;20046;-56
2021/12/04 03:30:38;;;;;;;3.33;3.03;;;;;;;-0.64;77.50;98073.78;4946552;29;20035;-56
2021/12/04 03:42:40;;;;;;;5.07;3.33;;;;;;;-0.77;75.90;98100.06;4962790;29;20058;-57
2021/12/04 03:45:26;;;;;;;7.80;3.60;;;;;;;-0.68;76.76;98082.28;4961486;29;20031;-57
2021/12/04 03:48:58;;;;;;;3.80;3.20;;;;;;;-0.77;76.76;98080.59;4957190;29;20106;-57
2021/12/04 03:51:20;;;;;;;3.97;3.13;;;;;;;-0.70;76.06;98101.75;4958473;28;20045;-56
2021/12/04 03:54:06;;;;;;;5.25;3.55;;;;;;;-0.69;76.13;98080.56;4959922;29;20098;-55
2021/12/04 03:57:02;;;;;;;3.78;3.20;;;;;;;-0.67;76.62;98078.03;4944014;29;20329;-55
2021/12/04 03:59:49;;;;;;;4.07;3.25;;;;;;;-0.75;74.50;98076.34;4958258;29;20082;-55
2021/12/04 04:02:35;;;;;;;3.42;2.78;;;;;;;-0.83;75.29;98078.06;4954073;29;20035;-56
2021/12/04 04:05:21;;;;;;;6.20;3.30;;;;;;;-0.68;76.79;98079.72;4960270;29;20066;-56
2021/12/04 04:08:08;;;;;;;5.05;3.47;;;;;;;-0.89;76.00;98062.81;4953232;29;20043;-56
2021/12/04 04:10:54;;;;;;;3.20;2.90;;;;;;;-0.65;76.86;98087.34;4959161;29;20075;-57
2021/12/04 04:13:43;;;;;;;4.38;3.55;;;;;;;-0.65;75.85;98073.78;4958598;29;20069;-56
2021/12/04 04:16:29;;;;;;;3.90;3.25;;;;;;;-0.45;76.57;98089.00;4955100;28;20059;-56
2021/12/04 04:19:15;;;;;;;4.35;3.20;;;;;;;-0.56;75.44;98096.63;4956888;29;20031;-56
2021/12/04 04:22:02;;;;;;;4.30;3.22;;;;;;;-0.45;75.33;98101.69;4954416;29;20027;-57
2021/12/04 04:24:47;;;;;;;4.13;3.17;;;;;;;-0.62;74.91;98089.88;4957122;29;20054;-56
2021/12/04 04:27:34;;;;;;;4.95;2.90;;;;;;;-0.45;74.49;98110.16;4955828;29;20086;-56
2021/12/04 04:30:20;;;;;;;3.38;2.97;;;;;;;-0.62;74.99;98104.28;4944101;29;20343;-57
2021/12/04 04:33:07;;;;;;;5.47;3.22;;;;;;;-0.45;75.29;98099.16;4956603;29;20019;-56
2021/12/04 04:36:09;;;;;;;3.55;3.10;;;;;;;-0.47;75.71;98103.38;4945346;29;20039;-57
2021/12/04 05:13:04;;;;;;;3.45;2.72;;;;;;;-0.62;74.53;98128.00;4952607;29;20032;-57
2021/12/04 05:18:38;;;;;;;3.78;3.00;;;;;;;-0.58;75.21;98144.09;4944802;29;20099;-57
2021/12/04 05:21:24;;;;;;;3.25;2.45;;;;;;;-0.65;74.88;98143.25;4956669;29;20030;-57
2021/12/04 05:24:10;;;;;;;3.13;2.83;;;;;;;-0.62;74.54;98143.25;4958341;29;20046;-55
2021/12/04 05:26:56;;;;;;;3.60;3.00;;;;;;;-0.55;75.22;98142.38;4954295;29;20284;-56
2021/12/04 05:29:42;;;;;;;3.70;2.92;;;;;;;-0.57;73.94;98141.56;4943938;29;20059;-56
2021/12/04 05:32:28;;;;;;;3.65;2.75;;;;;;;-0.56;74.98;98143.22;4968480;28;20128;-56
2021/12/04 05:35:14;;;;;;;4.00;2.70;;;;;;;-0.63;73.89;98148.34;4954777;29;20032;-56
2021/12/04 05:38:01;;;;;;;4.13;2.67;;;;;;;-0.49;74.80;98144.06;4956958;29;20320;-56
2021/12/04 05:40:47;;;;;;;3.50;2.83;;;;;;;-0.57;73.59;98166.13;4958578;29;20228;-55
2021/12/04 05:43:34;;;;;;;4.20;3.10;;;;;;;-0.39;74.42;98162.72;4954391;29;20399;-55
2021/12/04 05:46:26;;;;;;;3.00;2.72;;;;;;;-0.58;74.42;98159.38;4950037;29;20027;-55
2021/12/04 05:49:20;;;;;;;3.15;2.38;;;;;;;-0.70;73.65;98152.56;4955887;29;20031;-56
2021/12/04 05:52:17;;;;;;;3.47;3.00;;;;;;;-0.50;74.71;98166.97;4955243;28;20062;-56
2021/12/04 05:55:11;;;;;;;3.05;2.45;;;;;;;-0.41;74.35;98161.88;4948508;29;20023;-55
2021/12/04 05:57:57;;;;;;;4.18;2.70;;;;;;;-0.35;74.98;98161.84;4960742;29;20039;-56
2021/12/04 06:00:43;;;;;;;4.45;3.00;;;;;;;-0.46;74.69;98172.03;4960111;29;20042;-56
2021/12/04 06:03:30;;;;;;;4.03;3.00;;;;;;;-0.65;74.65;98163.59;4962860;29;20031;-58
2021/12/04 06:06:16;;;;;;;3.85;2.95;;;;;;;-0.42;74.07;98177.97;4958532;29;20563;-56
2021/12/04 06:09:06;;;;;;;4.25;3.15;;;;;;;-0.46;75.08;98184.75;4961206;29;20069;-57
2021/12/04 06:11:52;;;;;;;3.95;3.03;;;;;;;-0.47;74.13;98177.13;4961042;29;20042;-58
2021/12/04 06:14:37;;;;;;;3.50;2.83;;;;;;;-0.49;74.57;98194.94;4959671;29;20031;-57
2021/12/04 06:17:25;;;;;;;4.32;2.80;;;;;;;-0.50;75.27;98183.06;4959709;29;20102;-55
2021/12/04 06:23:16;;;;;;;3.58;2.88;;;;;;;-0.56;74.83;98196.63;4954699;29;20073;-56
2021/12/04 06:26:06;;;;;;;2.90;2.60;;;;;;;-0.43;76.40;98204.25;4960586;29;20324;-58
2021/12/04 06:28:51;;;;;;;4.22;2.78;;;;;;;-0.52;75.63;98205.94;4962338;28;20053;-58
2021/12/04 06:31:37;;;;;;;5.00;3.13;;;;;;;-0.56;76.31;98191.53;4953397;29;20031;-56
2021/12/04 06:34:23;;;;;;;4.80;2.75;;;;;;;-0.54;75.64;98217.00;4945147;29;20032;-56
2021/12/04 06:37:09;;;;;;;3.47;2.90;;;;;;;-0.46;75.63;98217.81;4946519;29;20042;-57
2021/12/04 06:39:56;;;;;;;3.60;2.90;;;;;;;-0.46;76.31;98225.44;4961370;29;20085;-55
2021/12/04 06:42:44;;;;;;;4.35;3.05;;;;;;;-0.48;76.39;98216.13;4957973;29;20031;-57
2021/12/04 06:45:33;;;;;;;3.25;2.90;;;;;;;-0.55;75.08;98236.47;4958982;29;20378;-57
2021/12/04 06:48:22;;;;;;;5.70;3.35;;;;;;;-0.43;76.33;98219.50;4960812;29;20035;-57
2021/12/04 06:54:22;;;;;;;4.20;2.92;;;;;;;-0.24;75.82;98243.22;4959806;29;20031;-57
2021/12/04 06:57:09;;;;;;;3.55;2.90;;;;;;;-0.30;76.03;98246.63;4958280;29;20062;-57
2021/12/04 06:59:56;;;;;;;3.65;2.95;;;;;;;-0.53;75.88;98233.91;4942365;29;20031;-58
2021/12/04 07:02:42;;;;;;;3.35;2.95;;;;;;;-0.38;76.43;98264.44;4956573;29;20229;-57
2021/12/04 07:05:28;;;;;;;3.25;2.95;;;;;;;-0.54;76.11;98248.34;4957414;29;20027;-56
2021/12/04 07:08:14;;;;;;;4.50;2.85;;;;;;;-0.58;75.93;98231.38;4959149;29;20181;-58
2021/12/04 07:11:04;;;;;;;5.03;3.13;;;;;;;-0.56;75.62;98244.94;4959651;29;20031;-57
2021/12/04 07:13:50;;;;;;;5.03;3.10;;;;;;;-0.43;76.03;98265.28;4945796;29;20043;-57
2021/12/04 07:16:36;;;;;;;4.20;2.95;;;;;;;-0.53;75.08;98257.66;4956920;29;20078;-57
2021/12/04 07:19:22;;;;;;;5.00;2.95;;;;;;;-0.55;75.03;98282.22;4960324;29;20035;-57
2021/12/04 07:22:09;;;;;;;3.13;2.58;;;;;;;-0.58;73.95;98283.94;4958513;29;20038;-57
2021/12/04 07:24:55;;;;;;;5.78;2.80;;;;;;;-0.47;76.03;98296.63;4960641;29;20034;-56
2021/12/04 07:27:41;;;;;;;4.00;2.72;;;;;;;-0.45;75.25;98297.50;4960187;29;20023;-58
2021/12/04 07:30:27;;;;;;;3.10;2.60;;;;;;;-0.52;76.07;98309.34;4960051;29;20031;-58
2021/12/04 07:33:13;;;;;;;5.28;2.50;;;;;;;-0.63;74.48;98316.97;4960714;29;20043;-56
2021/12/04 07:36:00;;;;;;;4.93;3.03;;;;;;;-0.55;74.31;98322.91;4958384;29;20043;-58
2021/12/04 07:38:46;;;;;;;4.85;3.15;;;;;;;-0.52;74.54;98320.34;4959858;29;20390;-56
2021/12/04 07:41:37;;;;;;;4.25;2.85;;;;;;;-0.41;72.42;98338.19;4960167;29;20324;-57
2021/12/04 07:44:23;;;;;;;4.25;2.80;;;;;;;-0.48;71.10;98354.28;4959773;29;20039;-58
2021/12/04 07:47:10;;;;;;;6.28;2.58;;;;;;;-0.56;70.12;98358.50;4956332;29;20039;-56
2021/12/04 07:49:56;;;;;;;4.30;2.53;;;;;;;-0.61;68.39;98347.50;4959294;29;20034;-57
2021/12/04 07:52:42;;;;;;;4.63;2.40;;;;;;;-0.60;67.23;98367.84;4959452;29;20031;-57
2021/12/04 07:55:29;;;;;;;2.05;1.73;;;;;;;-0.74;67.04;98372.00;4956740;29;20232;-57
2021/12/04 07:58:15;;;;;;;2.15;1.95;;;;;;;-0.82;67.35;98361.84;4957896;29;20094;-57
2021/12/04 08:01:00;;;;;;;2.38;1.80;;;;;;;-0.84;68.14;98385.53;4950352;28;20027;-57
2021/12/04 08:03:46;;;;;;;2.72;2.10;;;;;;;-0.86;68.06;98393.16;4956469;29;20143;-58
2021/12/04 08:06:34;;;;;;;2.30;2.10;;;;;;;-0.95;68.54;98388.06;4956153;29;20069;-57
2021/12/04 08:09:20;;;;;;;2.70;2.17;;;;;;;-0.96;68.70;98397.34;4959531;29;20102;-56
2021/12/04 08:12:07;;;;;;;2.30;2.00;;;;;;;-0.83;69.64;98410.13;4953622;29;20043;-57
2021/12/04 08:14:54;;;;;;;5.10;2.53;;;;;;;-0.75;69.06;98416.91;4955981;28;20055;-57
2021/12/04 08:17:42;;;;;;;3.92;2.58;;;;;;;-0.98;70.06;98368.56;4947227;29;20035;-56
2021/12/04 08:20:28;;;;;;;3.80;2.40;;;;;;;-0.84;68.68;98427.06;4959799;28;20031;-57
2021/12/04 08:23:14;;;;;;;4.63;2.20;;;;;;;-0.76;67.81;98422.00;4957386;29;20364;-57
2021/12/04 08:26:00;;;;;;;2.55;2.05;;;;;;;-0.82;67.74;98435.53;4957947;28;20039;-57
2021/12/04 08:28:47;;;;;;;2.42;2.13;;;;;;;-0.77;66.91;98443.16;4956988;29;20031;-57
2021/12/04 08:31:33;;;;;;;2.00;1.80;;;;;;;-0.77;67.76;98438.97;4945638;29;20023;-56
2021/12/04 08:34:19;;;;;;;3.17;2.05;;;;;;;-0.67;66.89;98437.31;4951784;29;20074;-57
2021/12/04 08:37:05;;;;;;;6.15;2.38;;;;;;;-0.72;66.75;98438.97;4956483;28;20047;-57
2021/12/04 08:39:51;;;;;;;3.22;1.98;;;;;;;-0.53;66.08;98443.28;4947023;29;20272;-56
2021/12/04 08:42:39;;;;;;;2.30;1.77;;;;;;;-0.77;65.74;98431.34;4967042;28;20051;-59
2021/12/04 08:45:26;;;;;;;3.08;1.83;;;;;;;-0.68;65.10;98445.75;4951522;29;20547;-57
2021/12/04 08:48:12;;;;;;;2.33;1.90;;;;;;;-0.79;64.92;98445.72;4954614;29;20035;-56
2021/12/04 08:50:59;;;;;;;2.67;2.35;;;;;;;-0.56;66.71;98448.31;4945255;29;20324;-57
2021/12/04 08:53:45;;;;;;;2.08;1.73;;;;;;;-0.72;65.19;98461.84;4956721;29;20042;-63
2021/12/04 08:56:33;;;;;;;1.70;1.60;;;;;;;-0.94;66.11;98454.13;4951286;28;20090;-58
2021/12/04 08:59:19;;;;;;;2.17;1.80;;;;;;;-0.89;65.78;98472.78;4956548;29;20043;-57
2021/12/04 09:02:06;;;;;;;2.60;1.98;;;;;;;-0.98;66.88;98476.94;4957851;29;20355;-59
2021/12/04 09:04:54;;;;;;;3.45;2.08;;;;;;;-1.15;66.33;98487.88;4956772;29;20034;-59
2021/12/04 09:07:40;;;;;;;3.20;2.30;;;;;;;-0.84;66.31;98470.28;4959289;29;20066;-59
2021/12/04 09:10:26;;;;;;;2.28;1.90;;;;;;;-0.40;66.11;98463.63;4957516;29;20311;-58
2021/12/04 09:13:13;;;;;;;4.00;2.05;;;;;;;-0.43;64.39;98467.03;4958462;29;20086;-59
2021/12/04 09:16:00;;;;;;;1.80;1.65;;;;;;;-0.39;65.44;98468.72;4956538;29;20354;-58
2021/12/04 09:18:46;;;;;;;1.83;1.73;;;;;;;-0.63;65.04;98486.44;4957227;29;20038;-59
2021/12/04 09:21:34;;;;;;;2.90;1.88;;;;;;;-0.90;63.95;98488.00;4947548;29;20217;-58
2021/12/04 09:24:27;;;;;;;2.85;1.60;;;;;;;-0.53;65.48;98489.03;4940271;29;20040;-58
2021/12/04 10:04:07;;;;;;;;;;;;;;;-1.01;64.37;98503.22;4950436;29;20034;-57
2021/12/04 10:22:32;;;;;;;2.20;2.00;;;;;;;-0.94;63.56;98524.41;4954575;29;20110;-58
2021/12/04 10:34:34;;;;;;;2.10;1.67;;;;;;;-0.95;63.32;98541.34;4957416;29;20031;-58
2021/12/04 10:37:27;;;;;;;2.35;1.80;;;;;;;-0.86;62.83;98560.88;4940516;29;20035;-57
2021/12/04 10:40:13;;;;;;;2.63;1.92;;;;;;;-0.95;61.62;98535.44;4958884;28;20117;-58
2021/12/04 10:43:01;;;;;;;4.10;2.20;;;;;;;-0.67;61.89;98551.69;4958170;29;20043;-58
2021/12/04 10:45:55;;;;;;;2.85;1.83;;;;;;;-1.24;61.70;98493.75;4949377;29;20204;-60
2021/12/04 10:48:50;;;;;;;2.38;2.00;;;;;;;-1.01;60.58;98498.13;4959286;29;20320;-57
2021/12/04 10:51:49;;;;;;;2.53;2.15;;;;;;;-0.73;61.05;98556.72;4961421;29;20103;-56
2021/12/04 10:54:39;;;;;;;2.08;1.70;;;;;;;-0.60;61.21;98583.94;4953697;29;20035;-57
2021/12/04 11:00:34;;;;;;;1.83;1.60;;;;;;;-1.01;57.61;98574.34;4959032;29;20099;-58
2021/12/04 11:42:41;;;;;;;4.53;1.67;;;;;;;-1.33;59.42;98638.44;4956823;29;20221;-57
2021/12/04 11:45:43;;;;;;;2.60;1.63;;;;;;;-1.27;61.03;98650.34;4957978;29;20115;-56
2021/12/04 11:48:40;;;;;;;3.00;1.60;;;;;;;-1.71;59.15;98590.72;4959988;29;20073;-57
2021/12/04 11:51:27;;;;;;;1.35;1.25;;;;;;;-1.59;59.58;98659.34;4953311;28;20031;-58
2021/12/04 11:54:13;;;;;;;2.03;1.30;;;;;;;-1.66;59.82;98651.66;4950728;28;20086;-59
2021/12/04 11:57:10;;;;;;;2.95;1.80;;;;;;;-1.91;60.44;98657.31;4952230;29;20058;-59
2021/12/04 12:00:17;;;;;;;1.92;1.25;;;;;;;-2.14;59.85;98590.22;4943682;29;20040;-58
2021/12/04 12:03:08;;;;;;;1.40;1.25;;;;;;;-1.52;60.22;98655.19;4961761;28;20125;-58
2021/12/04 12:06:01;;;;;;;1.50;1.40;;;;;;;-1.89;59.08;98590.50;4958708;29;20035;-57
2021/12/04 12:08:47;;;;;;;2.15;1.55;;;;;;;-1.70;59.17;98645.69;4958731;29;20027;-57
2021/12/04 12:11:34;;;;;;;3.85;1.80;;;;;;;-1.69;57.77;98665.16;4959733;29;20034;-57
2021/12/04 12:14:34;;;;;;;2.90;2.10;;;;;;;-1.60;58.84;98672.84;4943186;28;20090;-58
2021/12/04 12:17:35;;;;;;;2.85;1.70;;;;;;;-1.62;59.06;98651.69;4946099;29;20098;-58
2021/12/04 12:20:39;;;;;;;2.07;1.60;;;;;;;-1.96;58.69;98609.88;4955859;29;20051;-58
2021/12/04 12:23:32;;;;;;;3.60;1.90;;;;;;;-1.50;57.99;98670.44;4958115;29;20061;-58
2021/12/04 12:26:35;;;;;;;3.45;1.55;;;;;;;-1.58;57.64;98670.38;4954689;28;20042;-59
2021/12/04 12:33:21;;;;;;;1.55;1.42;;;;;;;-1.70;56.50;98696.44;4958559;29;20039;-59
2021/12/04 12:36:14;;;;;;;4.47;1.90;;;;;;;-1.85;58.94;98628.63;4942829;29;20229;-58
2021/12/04 12:39:15;;;;;;;3.40;1.77;;;;;;;-1.86;57.99;98628.59;4953963;29;20090;-58
2021/12/04 12:42:02;;;;;;;3.20;1.83;;;;;;;-1.40;57.63;98690.00;4956149;29;20028;-58
2021/12/04 12:44:48;;;;;;;2.15;1.58;;;;;;;-1.48;57.42;98702.63;4959400;28;20027;-58
2021/12/04 12:47:50;;;;;;;1.63;1.38;;;;;;;-1.77;57.96;98713.31;4945649;29;20090;-58
2021/12/04 12:50:43;;;;;;;1.58;1.27;;;;;;;-1.73;58.78;98716.72;4956842;29;20221;-60
2021/12/04 12:53:30;;;;;;;4.60;1.73;;;;;;;-1.70;57.01;98716.75;4955813;29;20035;-59
2021/12/04 12:56:17;;;;;;;4.15;1.67;;;;;;;-1.80;58.23;98713.22;4957328;29;20031;-59
2021/12/04 12:59:19;;;;;;;1.35;1.15;;;;;;;-1.82;57.30;98721.69;4956620;29;20038;-57
2021/12/04 13:14:27;;;;;;;1.95;1.45;;;;;;;-2.34;57.78;98671.13;4957252;29;20320;-60
2021/12/04 13:17:17;;;;;;;2.67;1.53;;;;;;;-1.80;59.43;98747.91;4954425;29;20050;-59
2021/12/04 13:20:03;;;;;;;2.22;1.48;;;;;;;-1.99;59.32;98740.06;4946900;29;20421;-60
2021/12/04 13:22:49;;;;;;;3.38;1.45;;;;;;;-1.98;60.42;98753.59;4950786;29;20294;-58
2021/12/04 13:25:35;;;;;;;3.97;1.50;;;;;;;-1.79;59.98;98758.09;4953897;28;20065;-60
2021/12/04 13:28:24;;;;;;;4.88;1.75;;;;;;;-2.23;59.74;98706.78;4955480;29;20103;-59
2021/12/04 13:31:11;;;;;;;1.45;1.30;;;;;;;-1.99;59.81;98749.38;4948169;29;20044;-60
2021/12/04 13:33:57;;;;;;;2.80;1.80;;;;;;;-1.99;59.64;98765.44;4950443;29;20030;-60
2021/12/04 13:36:47;;;;;;;3.38;1.80;;;;;;;-1.94;61.41;98793.41;4955738;29;20030;-59
2021/12/04 13:39:34;;;;;;;7.55;1.70;;;;;;;-1.84;61.51;98779.16;4953175;29;20023;-58
2021/12/04 13:42:20;;;;;;;4.65;2.45;;;;;;;-1.81;62.32;98780.06;4958125;29;20082;-60
2021/12/04 13:45:13;;;;;;;3.58;2.10;;;;;;;-2.15;61.56;98721.25;4955290;29;20031;-60
2021/12/04 13:47:59;;;;;;;2.75;1.98;;;;;;;-1.69;61.60;98799.66;4951610;29;20034;-59
2021/12/04 13:50:45;;;;;;;2.67;2.00;;;;;;;-1.74;61.48;98791.13;4956912;29;20087;-61
2021/12/04 13:53:35;;;;;;;2.47;2.03;;;;;;;-1.99;63.47;98729.91;4943816;29;20043;-58
2021/12/04 13:56:22;;;;;;;4.05;1.80;;;;;;;-1.65;62.19;98805.66;4955434;29;20046;-58
2021/12/04 13:59:10;;;;;;;3.30;2.03;;;;;;;-1.89;62.41;98801.09;4939532;29;20035;-60
2021/12/04 14:01:57;;;;;;;3.00;2.20;;;;;;;-1.91;62.71;98785.81;4944827;29;20102;-58
2021/12/04 14:04:43;;;;;;;2.95;2.20;;;;;;;-1.81;62.89;98807.97;4957110;29;20051;-58
2021/12/04 14:07:29;;;;;;;3.45;2.03;;;;;;;-1.56;64.34;98810.84;4957508;29;20336;-58
2021/12/04 14:10:23;;;;;;;3.35;2.35;;;;;;;-1.64;63.55;98803.13;4957928;29;20058;-59
2021/12/04 14:13:11;;;;;;;2.47;2.05;;;;;;;-1.60;63.88;98802.31;4949687;28;20039;-60
2021/12/04 14:15:57;;;;;;;3.42;2.15;;;;;;;-1.76;63.38;98805.50;4954541;29;20114;-59
2021/12/04 14:18:44;;;;;;;12.02;2.60;;;;;;;-1.68;63.25;98801.38;4960100;29;20030;-59
2021/12/04 14:21:30;;;;;;;4.30;2.47;;;;;;;-1.77;63.74;98793.63;4960003;29;20027;-59
2021/12/04 14:24:54;;;;;;;2.90;2.22;;;;;;;-1.66;64.62;98819.16;4960039;29;20216;-59
2021/12/04 14:27:40;;;;;;;3.15;2.30;;;;;;;-1.81;63.40;98835.91;4955500;29;20276;-59
2021/12/04 14:30:32;;;;;;;6.47;2.10;;;;;;;-2.20;64.45;98755.00;4954149;29;20320;-59
2021/12/04 14:33:22;;;;;;;2.92;2.00;;;;;;;-1.71;64.43;98849.56;4958641;29;20085;-57
2021/12/04 14:36:08;;;;;;;3.42;2.03;;;;;;;-1.66;64.07;98829.31;4958620;29;20069;-59
2021/12/04 14:38:54;;;;;;;3.38;2.50;;;;;;;-1.83;63.39;98826.53;4959259;29;20098;-59
2021/12/04 14:41:40;;;;;;;4.38;2.58;;;;;;;-1.83;63.05;98821.47;4956398;29;20063;-59
2021/12/04 14:44:26;;;;;;;2.45;2.25;;;;;;;-1.66;62.42;98834.41;4953546;29;20032;-60
2021/12/04 14:47:12;;;;;;;5.63;2.60;;;;;;;-1.77;63.45;98849.47;4958115;28;20051;-60
2021/12/04 14:50:00;;;;;;;4.63;2.65;;;;;;;-1.69;64.16;98842.81;4959038;29;20054;-59
2021/12/04 14:52:52;;;;;;;3.33;2.60;;;;;;;-1.78;63.09;98842.66;4959100;29;20031;-58
2021/12/04 14:55:42;;;;;;;;;;;;;;;-1.65;64.36;98842.03;4951210;29;20530;-60
2021/12/04 14:58:29;;;;;;;3.42;2.35;;;;;;;-1.60;63.07;98837.84;4952095;28;20084;-58
2021/12/04 15:01:20;;;;;;;5.05;2.10;;;;;;;-1.76;61.93;98829.19;4961449;28;20228;-58
2021/12/04 15:04:05;;;;;;;4.22;2.67;;;;;;;-1.64;62.04;98846.28;4960220;29;20034;-57
2021/12/04 15:06:52;;;;;;;6.93;2.72;;;;;;;-1.78;61.88;98845.22;4959114;29;20058;-60
2021/12/04 15:09:37;;;;;;;5.70;2.67;;;;;;;-1.72;63.67;98840.25;4962439;28;20035;-58
2021/12/04 15:12:41;;;;;;;2.65;2.42;;;;;;;-1.84;62.42;98865.44;4942286;29;20108;-59
2021/12/04 15:15:31;;;;;;;4.60;2.70;;;;;;;-1.87;62.83;98852.69;4959879;29;20118;-58
2021/12/04 15:18:20;;;;;;;3.28;2.45;;;;;;;-1.71;62.26;98863.94;4944563;29;20028;-58
2021/12/04 15:21:11;;;;;;;3.67;2.60;;;;;;;-1.95;63.58;98830.59;4955577;29;20106;-58
2021/12/04 15:23:57;;;;;;;4.60;2.03;;;;;;;-1.89;62.56;98872.97;4958933;29;20328;-59
2021/12/04 15:26:43;;;;;;;2.78;2.25;;;;;;;-1.81;63.28;98871.41;4959727;29;20065;-58
2021/12/04 15:29:31;;;;;;;3.40;2.10;;;;;;;-1.86;62.04;98883.16;4958697;29;20058;-58
2021/12/04 15:32:23;;;;;;;4.22;2.47;;;;;;;-2.02;60.66;98851.66;4959113;29;20043;-58
2021/12/04 15:35:37;;;;;;;2.78;2.30;;;;;;;-2.13;62.23;98840.47;4959346;29;20669;-58
2021/12/04 15:38:38;;;;;;;5.05;2.20;;;;;;;-2.22;61.96;98820.03;4959006;29;20035;-57
2021/12/04 15:42:00;;;;;;;3.72;2.00;;;;;;;-1.95;62.26;98847.53;4958749;29;20059;-59
2021/12/04 15:45:03;;;;;;;4.03;2.00;;;;;;;-1.66;62.34;98898.69;4955827;29;20328;-58
2021/12/04 15:48:22;;;;;;;5.47;2.63;;;;;;;-1.66;62.56;98901.22;4954841;29;20066;-59
2021/12/04 15:52:47;;;;;;;2.72;2.25;;;;;;;-2.06;61.37;98827.06;4957549;29;20031;-57
2021/12/04 15:54:48;;;;;;;4.30;1.98;;;;;;;-1.56;61.57;98907.31;4958688;28;20042;-58
2021/12/04 15:57:35;;;;;;;2.55;2.00;;;;;;;-1.60;61.82;98903.00;4956979;29;20657;-60
2021/12/04 16:00:23;;;;;;;2.67;1.92;;;;;;;-1.77;61.70;98901.09;4956131;29;20065;-58
2021/12/04 16:03:14;;;;;;;7.00;2.17;;;;;;;-2.00;62.72;98844.91;4956896;29;20489;-59
2021/12/04 16:06:09;;;;;;;4.88;2.17;;;;;;;-1.61;63.48;98908.91;4957697;29;20035;-58
2021/12/04 16:08:55;;;;;;;4.10;2.50;;;;;;;-1.74;62.85;98897.72;4956190;29;20078;-58
2021/12/04 16:11:43;;;;;;;3.25;2.30;;;;;;;-2.10;62.74;98851.50;4953087;29;20079;-59
2021/12/04 16:14:38;;;;;;;2.72;1.92;;;;;;;-1.61;62.93;98934.28;4955661;29;20130;-59
2021/12/04 16:17:24;;;;;;;4.85;2.47;;;;;;;-1.73;62.83;98919.75;4951160;28;20023;-59
2021/12/04 16:20:13;;;;;;;3.15;2.30;;;;;;;-1.81;61.63;98928.91;4959626;29;20031;-59
2021/12/04 16:23:00;;;;;;;2.88;2.47;;;;;;;-1.73;62.21;98932.44;4943427;29;20041;-58